sensor_id;sensor_type;location;lat;lon;timestamp;P1;durP1;ratioP1;P2;durP2;ratioP2
2305;SDS011;1161;51.922;8.896;2023-10-19T00:00:46;44.17;;;20.40;;
2305;SDS011;1161;51.922;8.896;2023-10-19T00:03:14;36.60;;;20.37;;
2305;SDS011;1161;51.922;8.896;2023-10-19T00:05:41;39.70;;;21.23;;
2305;SDS011;1161;51.922;8.896;2023-10-19T00:08:07;40.40;;;20.00;;
2305;SDS011;1161;51.922;8.896;2023-10-19T00:10:41;46.13;;;20.00;;
2305;SDS011;1161;51.922;8.896;2023-10-19T00:13:10;42.03;;;22.80;;
2305;SDS011;1161;51.922;8.896;2023-10-19T00:15:38;38.53;;;19.80;;
2305;SDS011;1161;51.922;8.896;2023-10-19T00:18:06;40.77;;;21.17;;
2305;SDS011;1161;51.922;8.896;2023-10-19T00:20:46;40.90;;;23.10;;
2305;SDS011;1161;51.922;8.896;2023-10-19T00:23:20;35.53;;;20.03;;
2305;SDS011;1161;51.922;8.896;2023-10-19T00:25:54;40.27;;;20.30;;
2305;SDS011;1161;51.922;8.896;2023-10-19T00:28:22;43.27;;;19.77;;
2305;SDS011;1161;51.922;8.896;2023-10-19T00:30:51;41.67;;;21.70;;
2305;SDS011;1161;51.922;8.896;2023-10-19T00:33:18;48.63;;;22.17;;
2305;SDS011;1161;51.922;8.896;2023-10-19T00:35:47;44.60;;;22.77;;
2305;SDS011;1161;51.922;8.896;2023-10-19T00:38:22;43.40;;;21.73;;
2305;SDS011;1161;51.922;8.896;2023-10-19T00:41:07;37.17;;;20.00;;
2305;SDS011;1161;51.922;8.896;2023-10-19T00:43:40;42.00;;;22.13;;
2305;SDS011;1161;51.922;8.896;2023-10-19T00:46:12;50.47;;;25.83;;
2305;SDS011;1161;51.922;8.896;2023-10-19T00:48:47;41.07;;;21.87;;
2305;SDS011;1161;51.922;8.896;2023-10-19T00:51:16;44.27;;;21.10;;
2305;SDS011;1161;51.922;8.896;2023-10-19T00:53:55;39.13;;;20.33;;
2305;SDS011;1161;51.922;8.896;2023-10-19T00:56:24;43.23;;;23.57;;
2305;SDS011;1161;51.922;8.896;2023-10-19T00:58:58;45.67;;;21.33;;
2305;SDS011;1161;51.922;8.896;2023-10-19T01:01:32;46.33;;;22.07;;
2305;SDS011;1161;51.922;8.896;2023-10-19T01:04:05;43.47;;;22.03;;
2305;SDS011;1161;51.922;8.896;2023-10-19T01:06:33;43.17;;;23.20;;
2305;SDS011;1161;51.922;8.896;2023-10-19T01:09:00;42.67;;;23.50;;
2305;SDS011;1161;51.922;8.896;2023-10-19T01:11:28;50.80;;;22.90;;
2305;SDS011;1161;51.922;8.896;2023-10-19T01:13:55;47.00;;;23.57;;
2305;SDS011;1161;51.922;8.896;2023-10-19T01:16:24;49.23;;;26.30;;
2305;SDS011;1161;51.922;8.896;2023-10-19T01:18:52;46.33;;;24.63;;
2305;SDS011;1161;51.922;8.896;2023-10-19T01:21:22;44.63;;;20.23;;
2305;SDS011;1161;51.922;8.896;2023-10-19T01:24:05;45.07;;;23.67;;
2305;SDS011;1161;51.922;8.896;2023-10-19T01:26:32;40.63;;;21.97;;
2305;SDS011;1161;51.922;8.896;2023-10-19T01:29:02;41.07;;;22.30;;
2305;SDS011;1161;51.922;8.896;2023-10-19T01:31:38;44.57;;;21.83;;
2305;SDS011;1161;51.922;8.896;2023-10-19T01:34:16;37.10;;;22.43;;
2305;SDS011;1161;51.922;8.896;2023-10-19T01:36:45;64.67;;;27.47;;
2305;SDS011;1161;51.922;8.896;2023-10-19T01:39:17;43.70;;;22.20;;
2305;SDS011;1161;51.922;8.896;2023-10-19T01:41:45;48.57;;;22.83;;
2305;SDS011;1161;51.922;8.896;2023-10-19T01:44:11;41.60;;;21.20;;
2305;SDS011;1161;51.922;8.896;2023-10-19T01:46:41;47.60;;;22.03;;
2305;SDS011;1161;51.922;8.896;2023-10-19T01:49:09;51.70;;;23.60;;
2305;SDS011;1161;51.922;8.896;2023-10-19T01:51:36;47.60;;;23.07;;
2305;SDS011;1161;51.922;8.896;2023-10-19T01:54:04;50.27;;;23.47;;
2305;SDS011;1161;51.922;8.896;2023-10-19T01:56:33;42.87;;;21.97;;
2305;SDS011;1161;51.922;8.896;2023-10-19T01:59:01;47.03;;;24.00;;
2305;SDS011;1161;51.922;8.896;2023-10-19T02:01:29;41.10;;;21.60;;
2305;SDS011;1161;51.922;8.896;2023-10-19T02:03:58;51.53;;;26.13;;
2305;SDS011;1161;51.922;8.896;2023-10-19T02:06:26;48.33;;;21.80;;
2305;SDS011;1161;51.922;8.896;2023-10-19T02:08:55;41.30;;;23.40;;
2305;SDS011;1161;51.922;8.896;2023-10-19T02:11:26;50.33;;;22.80;;
2305;SDS011;1161;51.922;8.896;2023-10-19T02:13:56;45.37;;;22.40;;
2305;SDS011;1161;51.922;8.896;2023-10-19T02:16:25;55.40;;;23.80;;
2305;SDS011;1161;51.922;8.896;2023-10-19T02:18:52;52.03;;;24.43;;
2305;SDS011;1161;51.922;8.896;2023-10-19T02:21:19;39.03;;;19.83;;
2305;SDS011;1161;51.922;8.896;2023-10-19T02:23:48;40.77;;;21.70;;
2305;SDS011;1161;51.922;8.896;2023-10-19T02:26:16;45.00;;;20.47;;
2305;SDS011;1161;51.922;8.896;2023-10-19T02:28:45;37.77;;;18.93;;
2305;SDS011;1161;51.922;8.896;2023-10-19T02:31:13;34.50;;;17.93;;
2305;SDS011;1161;51.922;8.896;2023-10-19T02:33:46;32.30;;;17.93;;
2305;SDS011;1161;51.922;8.896;2023-10-19T02:36:16;36.70;;;17.70;;
2305;SDS011;1161;51.922;8.896;2023-10-19T02:38:44;30.10;;;18.60;;
2305;SDS011;1161;51.922;8.896;2023-10-19T02:41:15;34.67;;;17.93;;
2305;SDS011;1161;51.922;8.896;2023-10-19T02:43:41;36.33;;;16.40;;
2305;SDS011;1161;51.922;8.896;2023-10-19T02:46:12;29.50;;;15.63;;
2305;SDS011;1161;51.922;8.896;2023-10-19T02:48:38;30.83;;;17.13;;
2305;SDS011;1161;51.922;8.896;2023-10-19T02:51:10;30.13;;;15.93;;
2305;SDS011;1161;51.922;8.896;2023-10-19T02:53:37;23.47;;;13.90;;
2305;SDS011;1161;51.922;8.896;2023-10-19T02:56:11;25.33;;;14.43;;
2305;SDS011;1161;51.922;8.896;2023-10-19T02:58:40;27.57;;;13.17;;
2305;SDS011;1161;51.922;8.896;2023-10-19T03:01:14;20.50;;;12.67;;
2305;SDS011;1161;51.922;8.896;2023-10-19T03:03:43;25.20;;;14.00;;
2305;SDS011;1161;51.922;8.896;2023-10-19T03:06:12;26.33;;;12.93;;
2305;SDS011;1161;51.922;8.896;2023-10-19T03:08:38;27.83;;;12.73;;
2305;SDS011;1161;51.922;8.896;2023-10-19T03:11:04;23.07;;;13.87;;
2305;SDS011;1161;51.922;8.896;2023-10-19T03:13:30;26.30;;;13.83;;
2305;SDS011;1161;51.922;8.896;2023-10-19T03:15:59;20.87;;;13.10;;
2305;SDS011;1161;51.922;8.896;2023-10-19T03:18:34;21.10;;;12.50;;
2305;SDS011;1161;51.922;8.896;2023-10-19T03:21:02;19.87;;;12.80;;
2305;SDS011;1161;51.922;8.896;2023-10-19T03:23:28;25.70;;;12.87;;
2305;SDS011;1161;51.922;8.896;2023-10-19T03:25:57;29.33;;;13.90;;
2305;SDS011;1161;51.922;8.896;2023-10-19T03:28:42;18.90;;;11.23;;
2305;SDS011;1161;51.922;8.896;2023-10-19T03:31:10;26.10;;;13.90;;
2305;SDS011;1161;51.922;8.896;2023-10-19T03:33:45;25.00;;;14.60;;
2305;SDS011;1161;51.922;8.896;2023-10-19T03:36:15;22.90;;;15.00;;
2305;SDS011;1161;51.922;8.896;2023-10-19T03:38:42;23.93;;;15.40;;
2305;SDS011;1161;51.922;8.896;2023-10-19T03:41:10;22.37;;;12.90;;
2305;SDS011;1161;51.922;8.896;2023-10-19T03:43:37;25.17;;;15.03;;
2305;SDS011;1161;51.922;8.896;2023-10-19T03:46:05;27.97;;;15.40;;
2305;SDS011;1161;51.922;8.896;2023-10-19T03:48:49;30.30;;;18.13;;
2305;SDS011;1161;51.922;8.896;2023-10-19T03:51:15;42.33;;;17.70;;
2305;SDS011;1161;51.922;8.896;2023-10-19T03:53:43;39.40;;;19.93;;
2305;SDS011;1161;51.922;8.896;2023-10-19T03:56:14;33.47;;;17.37;;
2305;SDS011;1161;51.922;8.896;2023-10-19T03:58:43;24.60;;;15.97;;
2305;SDS011;1161;51.922;8.896;2023-10-19T04:01:15;32.07;;;17.30;;
2305;SDS011;1161;51.922;8.896;2023-10-19T04:03:45;31.70;;;17.70;;
2305;SDS011;1161;51.922;8.896;2023-10-19T04:06:13;36.70;;;17.70;;
2305;SDS011;1161;51.922;8.896;2023-10-19T04:08:41;42.30;;;18.47;;
2305;SDS011;1161;51.922;8.896;2023-10-19T04:11:10;33.77;;;17.67;;
2305;SDS011;1161;51.922;8.896;2023-10-19T04:13:48;34.47;;;18.20;;
2305;SDS011;1161;51.922;8.896;2023-10-19T04:16:18;31.80;;;17.83;;
2305;SDS011;1161;51.922;8.896;2023-10-19T04:18:46;46.57;;;20.83;;
2305;SDS011;1161;51.922;8.896;2023-10-19T04:21:15;34.13;;;17.20;;
2305;SDS011;1161;51.922;8.896;2023-10-19T04:23:42;36.83;;;19.40;;
2305;SDS011;1161;51.922;8.896;2023-10-19T04:26:10;36.83;;;19.63;;
2305;SDS011;1161;51.922;8.896;2023-10-19T04:28:38;37.57;;;20.20;;
2305;SDS011;1161;51.922;8.896;2023-10-19T04:31:11;44.17;;;22.87;;
2305;SDS011;1161;51.922;8.896;2023-10-19T04:33:41;44.37;;;22.40;;
2305;SDS011;1161;51.922;8.896;2023-10-19T04:36:11;45.10;;;23.30;;
2305;SDS011;1161;51.922;8.896;2023-10-19T04:38:40;39.47;;;20.30;;
2305;SDS011;1161;51.922;8.896;2023-10-19T04:41:09;43.00;;;21.77;;
2305;SDS011;1161;51.922;8.896;2023-10-19T04:43:37;51.73;;;23.57;;
2305;SDS011;1161;51.922;8.896;2023-10-19T04:46:05;39.40;;;21.70;;
2305;SDS011;1161;51.922;8.896;2023-10-19T04:48:37;50.70;;;22.30;;
2305;SDS011;1161;51.922;8.896;2023-10-19T04:51:06;51.40;;;22.63;;
2305;SDS011;1161;51.922;8.896;2023-10-19T04:53:34;44.67;;;22.63;;
2305;SDS011;1161;51.922;8.896;2023-10-19T04:56:03;41.80;;;20.53;;
2305;SDS011;1161;51.922;8.896;2023-10-19T04:58:31;39.80;;;20.47;;
2305;SDS011;1161;51.922;8.896;2023-10-19T05:00:58;48.57;;;22.33;;
2305;SDS011;1161;51.922;8.896;2023-10-19T05:03:26;44.10;;;22.43;;
2305;SDS011;1161;51.922;8.896;2023-10-19T05:05:54;36.27;;;21.07;;
2305;SDS011;1161;51.922;8.896;2023-10-19T05:08:22;46.20;;;24.00;;
2305;SDS011;1161;51.922;8.896;2023-10-19T05:10:51;42.63;;;21.73;;
2305;SDS011;1161;51.922;8.896;2023-10-19T05:13:21;43.47;;;21.40;;
2305;SDS011;1161;51.922;8.896;2023-10-19T05:15:50;53.00;;;25.47;;
2305;SDS011;1161;51.922;8.896;2023-10-19T05:18:18;36.27;;;20.43;;
2305;SDS011;1161;51.922;8.896;2023-10-19T05:20:45;49.27;;;21.87;;
2305;SDS011;1161;51.922;8.896;2023-10-19T05:23:12;41.00;;;19.53;;
2305;SDS011;1161;51.922;8.896;2023-10-19T05:25:39;39.10;;;20.97;;
2305;SDS011;1161;51.922;8.896;2023-10-19T05:28:06;34.40;;;18.80;;
2305;SDS011;1161;51.922;8.896;2023-10-19T05:30:35;39.07;;;20.33;;
2305;SDS011;1161;51.922;8.896;2023-10-19T05:33:03;37.90;;;20.53;;
2305;SDS011;1161;51.922;8.896;2023-10-19T05:35:31;34.80;;;21.10;;
2305;SDS011;1161;51.922;8.896;2023-10-19T05:38:00;40.17;;;19.83;;
2305;SDS011;1161;51.922;8.896;2023-10-19T05:40:28;36.97;;;18.50;;
2305;SDS011;1161;51.922;8.896;2023-10-19T05:42:55;39.20;;;19.17;;
2305;SDS011;1161;51.922;8.896;2023-10-19T05:45:23;38.63;;;22.30;;
2305;SDS011;1161;51.922;8.896;2023-10-19T05:47:53;42.80;;;18.60;;
2305;SDS011;1161;51.922;8.896;2023-10-19T05:50:20;34.60;;;17.87;;
2305;SDS011;1161;51.922;8.896;2023-10-19T05:52:47;30.13;;;15.93;;
2305;SDS011;1161;51.922;8.896;2023-10-19T05:55:14;30.97;;;17.17;;
2305;SDS011;1161;51.922;8.896;2023-10-19T05:57:41;35.70;;;18.10;;
2305;SDS011;1161;51.922;8.896;2023-10-19T06:00:10;34.53;;;18.67;;
2305;SDS011;1161;51.922;8.896;2023-10-19T06:02:41;38.73;;;19.00;;
2305;SDS011;1161;51.922;8.896;2023-10-19T06:05:11;34.23;;;18.40;;
2305;SDS011;1161;51.922;8.896;2023-10-19T06:07:40;36.20;;;21.20;;
2305;SDS011;1161;51.922;8.896;2023-10-19T06:10:08;37.00;;;19.00;;
2305;SDS011;1161;51.922;8.896;2023-10-19T06:12:41;45.53;;;20.00;;
2305;SDS011;1161;51.922;8.896;2023-10-19T06:15:09;51.60;;;20.50;;
2305;SDS011;1161;51.922;8.896;2023-10-19T06:17:36;31.90;;;19.50;;
2305;SDS011;1161;51.922;8.896;2023-10-19T06:20:04;40.57;;;21.87;;
2305;SDS011;1161;51.922;8.896;2023-10-19T06:22:34;38.70;;;21.93;;
2305;SDS011;1161;51.922;8.896;2023-10-19T06:25:01;36.23;;;19.97;;
2305;SDS011;1161;51.922;8.896;2023-10-19T06:27:29;42.80;;;20.10;;
2305;SDS011;1161;51.922;8.896;2023-10-19T06:29:56;40.73;;;20.53;;
2305;SDS011;1161;51.922;8.896;2023-10-19T06:32:23;46.97;;;21.30;;
2305;SDS011;1161;51.922;8.896;2023-10-19T06:34:50;39.40;;;21.53;;
2305;SDS011;1161;51.922;8.896;2023-10-19T06:37:17;36.67;;;20.77;;
2305;SDS011;1161;51.922;8.896;2023-10-19T06:39:45;41.63;;;20.27;;
2305;SDS011;1161;51.922;8.896;2023-10-19T06:42:13;37.47;;;19.50;;
2305;SDS011;1161;51.922;8.896;2023-10-19T06:44:41;41.87;;;19.67;;
2305;SDS011;1161;51.922;8.896;2023-10-19T06:47:08;43.47;;;19.40;;
2305;SDS011;1161;51.922;8.896;2023-10-19T06:49:35;39.37;;;19.73;;
2305;SDS011;1161;51.922;8.896;2023-10-19T06:52:03;36.13;;;18.80;;
2305;SDS011;1161;51.922;8.896;2023-10-19T06:54:31;38.40;;;18.27;;
2305;SDS011;1161;51.922;8.896;2023-10-19T06:57:00;47.37;;;19.83;;
2305;SDS011;1161;51.922;8.896;2023-10-19T06:59:28;39.13;;;18.87;;
2305;SDS011;1161;51.922;8.896;2023-10-19T07:01:58;36.00;;;16.40;;
2305;SDS011;1161;51.922;8.896;2023-10-19T07:04:26;34.13;;;17.60;;
2305;SDS011;1161;51.922;8.896;2023-10-19T07:06:53;33.47;;;16.97;;
2305;SDS011;1161;51.922;8.896;2023-10-19T07:09:20;34.40;;;16.53;;
2305;SDS011;1161;51.922;8.896;2023-10-19T07:11:48;26.37;;;15.60;;
2305;SDS011;1161;51.922;8.896;2023-10-19T07:14:20;31.07;;;16.53;;
2305;SDS011;1161;51.922;8.896;2023-10-19T07:16:48;33.53;;;16.10;;
2305;SDS011;1161;51.922;8.896;2023-10-19T07:19:15;31.90;;;15.53;;
2305;SDS011;1161;51.922;8.896;2023-10-19T07:21:42;41.40;;;17.13;;
2305;SDS011;1161;51.922;8.896;2023-10-19T07:24:14;30.53;;;16.73;;
2305;SDS011;1161;51.922;8.896;2023-10-19T07:26:44;32.83;;;16.30;;
2305;SDS011;1161;51.922;8.896;2023-10-19T07:29:29;39.30;;;18.63;;
2305;SDS011;1161;51.922;8.896;2023-10-19T07:31:57;29.77;;;15.83;;
2305;SDS011;1161;51.922;8.896;2023-10-19T07:34:24;38.60;;;15.57;;
2305;SDS011;1161;51.922;8.896;2023-10-19T07:36:54;37.63;;;19.87;;
2305;SDS011;1161;51.922;8.896;2023-10-19T07:39:21;43.47;;;18.63;;
2305;SDS011;1161;51.922;8.896;2023-10-19T07:41:48;35.07;;;19.07;;
2305;SDS011;1161;51.922;8.896;2023-10-19T07:44:15;35.53;;;19.90;;
2305;SDS011;1161;51.922;8.896;2023-10-19T07:46:43;34.47;;;18.20;;
2305;SDS011;1161;51.922;8.896;2023-10-19T07:49:10;39.10;;;17.67;;
2305;SDS011;1161;51.922;8.896;2023-10-19T07:51:41;40.70;;;18.57;;
2305;SDS011;1161;51.922;8.896;2023-10-19T07:54:12;36.93;;;19.17;;
2305;SDS011;1161;51.922;8.896;2023-10-19T07:56:39;40.70;;;17.63;;
2305;SDS011;1161;51.922;8.896;2023-10-19T07:59:05;26.40;;;16.17;;
2305;SDS011;1161;51.922;8.896;2023-10-19T08:01:33;31.70;;;16.83;;
2305;SDS011;1161;51.922;8.896;2023-10-19T08:04:03;27.53;;;18.13;;
2305;SDS011;1161;51.922;8.896;2023-10-19T08:06:31;32.83;;;17.07;;
2305;SDS011;1161;51.922;8.896;2023-10-19T08:08:58;35.17;;;15.00;;
2305;SDS011;1161;51.922;8.896;2023-10-19T08:11:25;28.50;;;15.80;;
2305;SDS011;1161;51.922;8.896;2023-10-19T08:13:52;31.67;;;16.60;;
2305;SDS011;1161;51.922;8.896;2023-10-19T08:16:20;35.50;;;17.40;;
2305;SDS011;1161;51.922;8.896;2023-10-19T08:18:48;30.13;;;17.47;;
2305;SDS011;1161;51.922;8.896;2023-10-19T08:21:16;33.87;;;18.60;;
2305;SDS011;1161;51.922;8.896;2023-10-19T08:23:43;34.50;;;17.47;;
2305;SDS011;1161;51.922;8.896;2023-10-19T08:26:11;35.57;;;17.80;;
2305;SDS011;1161;51.922;8.896;2023-10-19T08:28:37;39.60;;;17.63;;
2305;SDS011;1161;51.922;8.896;2023-10-19T08:31:07;48.73;;;19.60;;
2305;SDS011;1161;51.922;8.896;2023-10-19T08:33:35;41.43;;;18.57;;
2305;SDS011;1161;51.922;8.896;2023-10-19T08:36:04;33.90;;;17.13;;
2305;SDS011;1161;51.922;8.896;2023-10-19T08:38:32;31.37;;;16.97;;
2305;SDS011;1161;51.922;8.896;2023-10-19T08:41:00;35.00;;;17.63;;
2305;SDS011;1161;51.922;8.896;2023-10-19T08:43:27;34.20;;;17.60;;
2305;SDS011;1161;51.922;8.896;2023-10-19T08:45:54;34.77;;;16.63;;
2305;SDS011;1161;51.922;8.896;2023-10-19T08:48:21;26.53;;;16.70;;
2305;SDS011;1161;51.922;8.896;2023-10-19T08:50:49;25.53;;;16.23;;
2305;SDS011;1161;51.922;8.896;2023-10-19T08:53:16;28.80;;;15.90;;
2305;SDS011;1161;51.922;8.896;2023-10-19T08:55:46;25.73;;;15.20;;
2305;SDS011;1161;51.922;8.896;2023-10-19T08:58:15;32.20;;;15.70;;
2305;SDS011;1161;51.922;8.896;2023-10-19T09:00:43;31.67;;;15.80;;
2305;SDS011;1161;51.922;8.896;2023-10-19T09:03:12;30.73;;;17.00;;
2305;SDS011;1161;51.922;8.896;2023-10-19T09:05:42;23.70;;;13.60;;
2305;SDS011;1161;51.922;8.896;2023-10-19T09:08:15;32.67;;;15.27;;
2305;SDS011;1161;51.922;8.896;2023-10-19T09:10:43;23.47;;;13.03;;
2305;SDS011;1161;51.922;8.896;2023-10-19T09:13:13;31.23;;;13.90;;
2305;SDS011;1161;51.922;8.896;2023-10-19T09:15:43;23.60;;;14.03;;
2305;SDS011;1161;51.922;8.896;2023-10-19T09:18:14;20.17;;;12.53;;
2305;SDS011;1161;51.922;8.896;2023-10-19T09:20:41;25.80;;;12.87;;
2305;SDS011;1161;51.922;8.896;2023-10-19T09:23:18;25.50;;;11.73;;
2305;SDS011;1161;51.922;8.896;2023-10-19T09:25:48;24.30;;;13.40;;
2305;SDS011;1161;51.922;8.896;2023-10-19T09:28:19;38.57;;;13.70;;
2305;SDS011;1161;51.922;8.896;2023-10-19T09:30:46;23.57;;;13.83;;
2305;SDS011;1161;51.922;8.896;2023-10-19T09:33:14;19.77;;;12.60;;
2305;SDS011;1161;51.922;8.896;2023-10-19T09:35:42;19.50;;;11.70;;
2305;SDS011;1161;51.922;8.896;2023-10-19T09:38:13;21.30;;;11.90;;
2305;SDS011;1161;51.922;8.896;2023-10-19T09:40:40;21.60;;;11.67;;
2305;SDS011;1161;51.922;8.896;2023-10-19T09:43:08;21.00;;;11.20;;
2305;SDS011;1161;51.922;8.896;2023-10-19T09:45:43;22.03;;;11.67;;
2305;SDS011;1161;51.922;8.896;2023-10-19T09:48:16;19.87;;;11.67;;
2305;SDS011;1161;51.922;8.896;2023-10-19T09:50:45;21.57;;;12.60;;
2305;SDS011;1161;51.922;8.896;2023-10-19T09:53:21;16.80;;;10.43;;
2305;SDS011;1161;51.922;8.896;2023-10-19T09:55:49;17.83;;;10.50;;
2305;SDS011;1161;51.922;8.896;2023-10-19T09:58:17;18.23;;;10.50;;
2305;SDS011;1161;51.922;8.896;2023-10-19T10:00:48;25.43;;;11.90;;
2305;SDS011;1161;51.922;8.896;2023-10-19T10:03:41;20.20;;;11.97;;
2305;SDS011;1161;51.922;8.896;2023-10-19T10:06:08;17.33;;;9.83;;
2305;SDS011;1161;51.922;8.896;2023-10-19T10:08:38;23.80;;;10.50;;
2305;SDS011;1161;51.922;8.896;2023-10-19T10:11:18;20.30;;;11.50;;
2305;SDS011;1161;51.922;8.896;2023-10-19T10:13:46;24.07;;;12.57;;
2305;SDS011;1161;51.922;8.896;2023-10-19T10:16:18;21.63;;;12.00;;
2305;SDS011;1161;51.922;8.896;2023-10-19T10:18:46;16.57;;;10.43;;
2305;SDS011;1161;51.922;8.896;2023-10-19T10:21:16;16.03;;;9.30;;
2305;SDS011;1161;51.922;8.896;2023-10-19T10:23:49;18.13;;;10.90;;
2305;SDS011;1161;51.922;8.896;2023-10-19T10:26:19;18.07;;;10.80;;
2305;SDS011;1161;51.922;8.896;2023-10-19T10:31:43;18.83;;;11.63;;
2305;SDS011;1161;51.922;8.896;2023-10-19T10:34:11;15.70;;;9.60;;
2305;SDS011;1161;51.922;8.896;2023-10-19T10:36:58;17.40;;;10.60;;
2305;SDS011;1161;51.922;8.896;2023-10-19T10:39:27;10.37;;;7.13;;
2305;SDS011;1161;51.922;8.896;2023-10-19T10:41:55;15.10;;;9.33;;
2305;SDS011;1161;51.922;8.896;2023-10-19T10:44:35;13.73;;;9.27;;
2305;SDS011;1161;51.922;8.896;2023-10-19T10:47:04;18.33;;;9.73;;
2305;SDS011;1161;51.922;8.896;2023-10-19T10:49:50;15.20;;;8.20;;
2305;SDS011;1161;51.922;8.896;2023-10-19T10:52:25;14.57;;;9.30;;
2305;SDS011;1161;51.922;8.896;2023-10-19T10:54:54;16.40;;;8.23;;
2305;SDS011;1161;51.922;8.896;2023-10-19T10:57:21;13.37;;;7.80;;
2305;SDS011;1161;51.922;8.896;2023-10-19T11:00:00;14.17;;;7.90;;
2305;SDS011;1161;51.922;8.896;2023-10-19T11:02:30;20.07;;;8.33;;
2305;SDS011;1161;51.922;8.896;2023-10-19T11:04:57;14.60;;;8.60;;
2305;SDS011;1161;51.922;8.896;2023-10-19T11:07:25;17.97;;;8.70;;
2305;SDS011;1161;51.922;8.896;2023-10-19T11:09:52;17.13;;;9.60;;
2305;SDS011;1161;51.922;8.896;2023-10-19T11:12:20;13.37;;;9.77;;
2305;SDS011;1161;51.922;8.896;2023-10-19T11:14:53;17.80;;;9.20;;
2305;SDS011;1161;51.922;8.896;2023-10-19T11:17:20;17.83;;;8.40;;
2305;SDS011;1161;51.922;8.896;2023-10-19T11:19:55;14.13;;;8.53;;
2305;SDS011;1161;51.922;8.896;2023-10-19T11:22:23;12.07;;;8.70;;
2305;SDS011;1161;51.922;8.896;2023-10-19T11:24:51;15.13;;;8.87;;
2305;SDS011;1161;51.922;8.896;2023-10-19T11:27:22;13.33;;;9.00;;
2305;SDS011;1161;51.922;8.896;2023-10-19T11:29:54;15.00;;;7.50;;
2305;SDS011;1161;51.922;8.896;2023-10-19T11:32:22;10.03;;;7.63;;
2305;SDS011;1161;51.922;8.896;2023-10-19T11:34:50;11.67;;;7.07;;
2305;SDS011;1161;51.922;8.896;2023-10-19T11:37:19;10.93;;;6.40;;
2305;SDS011;1161;51.922;8.896;2023-10-19T11:39:46;10.57;;;8.23;;
2305;SDS011;1161;51.922;8.896;2023-10-19T11:42:15;11.87;;;8.53;;
2305;SDS011;1161;51.922;8.896;2023-10-19T11:44:43;23.30;;;10.20;;
2305;SDS011;1161;51.922;8.896;2023-10-19T11:47:10;12.80;;;9.03;;
2305;SDS011;1161;51.922;8.896;2023-10-19T11:49:38;15.33;;;7.73;;
2305;SDS011;1161;51.922;8.896;2023-10-19T11:52:05;11.90;;;7.07;;
2305;SDS011;1161;51.922;8.896;2023-10-19T11:54:34;15.20;;;8.63;;
2305;SDS011;1161;51.922;8.896;2023-10-19T11:57:01;14.47;;;8.47;;
2305;SDS011;1161;51.922;8.896;2023-10-19T11:59:28;14.13;;;7.60;;
2305;SDS011;1161;51.922;8.896;2023-10-19T12:01:55;13.63;;;7.90;;
2305;SDS011;1161;51.922;8.896;2023-10-19T12:04:24;13.20;;;7.53;;
2305;SDS011;1161;51.922;8.896;2023-10-19T12:06:51;11.93;;;9.40;;
2305;SDS011;1161;51.922;8.896;2023-10-19T12:09:18;12.97;;;8.77;;
2305;SDS011;1161;51.922;8.896;2023-10-19T12:11:51;12.60;;;7.43;;
2305;SDS011;1161;51.922;8.896;2023-10-19T12:14:20;12.83;;;8.80;;
2305;SDS011;1161;51.922;8.896;2023-10-19T12:16:48;13.03;;;7.10;;
2305;SDS011;1161;51.922;8.896;2023-10-19T12:19:15;13.23;;;7.53;;
2305;SDS011;1161;51.922;8.896;2023-10-19T12:21:44;10.60;;;7.70;;
2305;SDS011;1161;51.922;8.896;2023-10-19T12:24:11;11.67;;;8.50;;
2305;SDS011;1161;51.922;8.896;2023-10-19T12:26:38;15.07;;;8.30;;
2305;SDS011;1161;51.922;8.896;2023-10-19T12:29:06;12.03;;;6.40;;
2305;SDS011;1161;51.922;8.896;2023-10-19T12:31:36;11.47;;;8.00;;
2305;SDS011;1161;51.922;8.896;2023-10-19T12:34:05;19.70;;;10.13;;
2305;SDS011;1161;51.922;8.896;2023-10-19T12:36:32;14.30;;;8.40;;
2305;SDS011;1161;51.922;8.896;2023-10-19T12:39:00;12.90;;;7.97;;
2305;SDS011;1161;51.922;8.896;2023-10-19T12:41:30;10.33;;;7.43;;
2305;SDS011;1161;51.922;8.896;2023-10-19T12:43:57;14.10;;;7.93;;
2305;SDS011;1161;51.922;8.896;2023-10-19T12:46:29;19.43;;;8.10;;
2305;SDS011;1161;51.922;8.896;2023-10-19T12:48:56;11.30;;;7.20;;
2305;SDS011;1161;51.922;8.896;2023-10-19T12:51:24;14.27;;;8.10;;
2305;SDS011;1161;51.922;8.896;2023-10-19T12:53:51;13.23;;;7.77;;
2305;SDS011;1161;51.922;8.896;2023-10-19T12:56:18;15.03;;;7.40;;
2305;SDS011;1161;51.922;8.896;2023-10-19T12:58:45;17.77;;;8.37;;
2305;SDS011;1161;51.922;8.896;2023-10-19T13:01:13;14.77;;;9.10;;
2305;SDS011;1161;51.922;8.896;2023-10-19T13:03:44;14.70;;;7.43;;
2305;SDS011;1161;51.922;8.896;2023-10-19T13:06:11;9.77;;;7.73;;
2305;SDS011;1161;51.922;8.896;2023-10-19T13:08:39;11.80;;;7.77;;
2305;SDS011;1161;51.922;8.896;2023-10-19T13:11:07;10.20;;;7.17;;
2305;SDS011;1161;51.922;8.896;2023-10-19T13:13:35;13.30;;;7.70;;
2305;SDS011;1161;51.922;8.896;2023-10-19T13:16:04;9.67;;;7.23;;
2305;SDS011;1161;51.922;8.896;2023-10-19T13:18:32;20.03;;;8.27;;
2305;SDS011;1161;51.922;8.896;2023-10-19T13:21:01;11.40;;;7.17;;
2305;SDS011;1161;51.922;8.896;2023-10-19T13:23:30;10.17;;;6.93;;
2305;SDS011;1161;51.922;8.896;2023-10-19T13:25:58;8.87;;;7.97;;
2305;SDS011;1161;51.922;8.896;2023-10-19T13:28:34;12.90;;;7.40;;
2305;SDS011;1161;51.922;8.896;2023-10-19T13:31:03;15.07;;;7.90;;
2305;SDS011;1161;51.922;8.896;2023-10-19T13:33:30;9.83;;;7.67;;
2305;SDS011;1161;51.922;8.896;2023-10-19T13:35:57;14.40;;;6.80;;
2305;SDS011;1161;51.922;8.896;2023-10-19T13:38:25;13.73;;;8.57;;
2305;SDS011;1161;51.922;8.896;2023-10-19T13:40:52;15.67;;;7.37;;
2305;SDS011;1161;51.922;8.896;2023-10-19T13:43:19;13.30;;;6.90;;
2305;SDS011;1161;51.922;8.896;2023-10-19T13:45:47;11.30;;;7.33;;
2305;SDS011;1161;51.922;8.896;2023-10-19T13:48:14;9.03;;;6.90;;
2305;SDS011;1161;51.922;8.896;2023-10-19T13:50:42;17.27;;;8.80;;
2305;SDS011;1161;51.922;8.896;2023-10-19T13:53:11;12.40;;;8.40;;
2305;SDS011;1161;51.922;8.896;2023-10-19T13:55:39;18.00;;;8.70;;
2305;SDS011;1161;51.922;8.896;2023-10-19T13:58:06;12.50;;;8.70;;
2305;SDS011;1161;51.922;8.896;2023-10-19T14:00:33;9.10;;;7.53;;
2305;SDS011;1161;51.922;8.896;2023-10-19T14:03:06;11.87;;;8.57;;
2305;SDS011;1161;51.922;8.896;2023-10-19T14:05:35;13.90;;;7.20;;
2305;SDS011;1161;51.922;8.896;2023-10-19T14:08:03;13.27;;;8.20;;
2305;SDS011;1161;51.922;8.896;2023-10-19T14:10:31;13.50;;;7.50;;
2305;SDS011;1161;51.922;8.896;2023-10-19T14:12:59;14.07;;;7.87;;
2305;SDS011;1161;51.922;8.896;2023-10-19T14:15:26;12.40;;;8.53;;
2305;SDS011;1161;51.922;8.896;2023-10-19T14:17:55;10.23;;;6.93;;
2305;SDS011;1161;51.922;8.896;2023-10-19T14:20:23;10.17;;;7.07;;
2305;SDS011;1161;51.922;8.896;2023-10-19T14:22:51;9.97;;;8.10;;
2305;SDS011;1161;51.922;8.896;2023-10-19T14:25:19;11.07;;;8.23;;
2305;SDS011;1161;51.922;8.896;2023-10-19T14:27:47;10.00;;;7.70;;
2305;SDS011;1161;51.922;8.896;2023-10-19T14:30:17;13.27;;;8.50;;
2305;SDS011;1161;51.922;8.896;2023-10-19T14:32:45;9.70;;;7.17;;
2305;SDS011;1161;51.922;8.896;2023-10-19T14:35:13;11.20;;;6.80;;
2305;SDS011;1161;51.922;8.896;2023-10-19T14:37:41;10.33;;;6.53;;
2305;SDS011;1161;51.922;8.896;2023-10-19T14:40:10;13.10;;;6.93;;
2305;SDS011;1161;51.922;8.896;2023-10-19T14:42:37;12.33;;;7.87;;
2305;SDS011;1161;51.922;8.896;2023-10-19T14:45:05;11.13;;;7.20;;
2305;SDS011;1161;51.922;8.896;2023-10-19T14:47:37;13.33;;;7.17;;
2305;SDS011;1161;51.922;8.896;2023-10-19T14:50:06;8.07;;;5.90;;
2305;SDS011;1161;51.922;8.896;2023-10-19T14:52:35;13.17;;;6.97;;
2305;SDS011;1161;51.922;8.896;2023-10-19T14:55:02;10.10;;;8.17;;
2305;SDS011;1161;51.922;8.896;2023-10-19T14:57:31;10.67;;;7.13;;
2305;SDS011;1161;51.922;8.896;2023-10-19T14:59:59;7.17;;;6.47;;
2305;SDS011;1161;51.922;8.896;2023-10-19T15:02:33;14.50;;;8.43;;
2305;SDS011;1161;51.922;8.896;2023-10-19T15:05:02;10.53;;;6.90;;
2305;SDS011;1161;51.922;8.896;2023-10-19T15:07:30;14.23;;;6.20;;